CheckWX is a tool to help pilots better visualize weather data.  It is not intended as a substitute for an official pre-flight weather briefing.

15:13:06 UTC

KTOI METAR
Troy Municipal at N Kenneth Campbell Field Airport
Troy, Alabama, USA
Current

20 mins ago

KTOI 261453Z AUTO 01004KT 10SM CLR 31/22 A3018 RMK AO2 SLP214 T03110217 50004
Observed
May-26 @ 14:53 UTC
Wind
  • 010° at 4 KTS
Visibility
10 SM
Flight Rules
VFR
Cloud Levels
  • Clear skies
Temperature
31°C / 88°F
Dewpoint
22°C / 72°F
Heat Index
35°C / 95°F
Humidity
59%
Altimeter
30.18" Hg
Pressure
1022.02 hPa
Previous

1 hour ago

KTOI 261353Z AUTO 00000KT 10SM SCT080 28/22 A3019 RMK AO2 SLP216 T02830217
Observed
May-26 @ 13:53 UTC
Visibility
10 SM
Flight Rules
VFR
Cloud Levels
  • Scattered at 8,000' AGL
Temperature
28°C / 82°F
Dewpoint
22°C / 72°F
Heat Index
30°C / 86°F
Humidity
70%
Altimeter
30.19" Hg
Pressure
1022.32 hPa
Previous

2 hours ago

KTOI 261253Z AUTO 00000KT 10SM CLR 24/21 A3018 RMK AO2 SLP213 T02440211
Observed
May-26 @ 12:53 UTC
Visibility
10 SM
Flight Rules
VFR
Cloud Levels
  • Clear skies
Temperature
24°C / 75°F
Dewpoint
21°C / 70°F
Humidity
83%
Altimeter
30.18" Hg
Pressure
1022.02 hPa